sensor_id;sensor_type;location;lat;lon;timestamp;temperature;humidity
34135;DHT22;20410;55.578;12.968;2022-09-28T00:01:23;12.80;99.90
34135;DHT22;20410;55.578;12.968;2022-09-28T00:03:51;12.90;99.90
34135;DHT22;20410;55.578;12.968;2022-09-28T00:06:19;12.90;99.90
34135;DHT22;20410;55.578;12.968;2022-09-28T00:08:46;13.00;99.90
34135;DHT22;20410;55.578;12.968;2022-09-28T00:11:13;13.00;99.90
34135;DHT22;20410;55.578;12.968;2022-09-28T00:13:40;13.10;99.90
34135;DHT22;20410;55.578;12.968;2022-09-28T00:16:10;13.10;99.90
34135;DHT22;20410;55.578;12.968;2022-09-28T00:18:36;13.20;99.90
34135;DHT22;20410;55.578;12.968;2022-09-28T00:21:22;13.20;99.90
34135;DHT22;20410;55.578;12.968;2022-09-28T00:23:56;13.20;99.90
34135;DHT22;20410;55.578;12.968;2022-09-28T00:29:23;13.10;99.90
34135;DHT22;20410;55.578;12.968;2022-09-28T00:31:52;13.10;99.90
34135;DHT22;20410;55.578;12.968;2022-09-28T00:34:18;13.10;99.90
34135;DHT22;20410;55.578;12.968;2022-09-28T00:36:45;13.10;99.90
34135;DHT22;20410;55.578;12.968;2022-09-28T00:39:12;13.20;99.90
34135;DHT22;20410;55.578;12.968;2022-09-28T00:41:39;13.20;99.90
34135;DHT22;20410;55.578;12.968;2022-09-28T00:49:41;13.10;99.90
34135;DHT22;20410;55.578;12.968;2022-09-28T00:52:10;13.10;99.90
34135;DHT22;20410;55.578;12.968;2022-09-28T00:54:37;13.10;99.90
34135;DHT22;20410;55.578;12.968;2022-09-28T00:57:04;13.10;99.90
34135;DHT22;20410;55.578;12.968;2022-09-28T00:59:31;13.00;99.90
34135;DHT22;20410;55.578;12.968;2022-09-28T01:01:56;13.00;99.90
34135;DHT22;20410;55.578;12.968;2022-09-28T01:04:22;13.00;99.90
34135;DHT22;20410;55.578;12.968;2022-09-28T01:06:48;13.00;99.90
34135;DHT22;20410;55.578;12.968;2022-09-28T01:09:16;13.00;99.90
34135;DHT22;20410;55.578;12.968;2022-09-28T01:11:42;13.10;99.90
34135;DHT22;20410;55.578;12.968;2022-09-28T01:14:11;13.10;99.90
34135;DHT22;20410;55.578;12.968;2022-09-28T01:25:23;13.10;99.90
34135;DHT22;20410;55.578;12.968;2022-09-28T01:28:18;13.00;99.90
34135;DHT22;20410;55.578;12.968;2022-09-28T01:31:01;13.00;99.90
34135;DHT22;20410;55.578;12.968;2022-09-28T01:33:44;13.00;99.90
34135;DHT22;20410;55.578;12.968;2022-09-28T01:36:45;13.00;99.90
34135;DHT22;20410;55.578;12.968;2022-09-28T01:39:20;13.00;99.90
34135;DHT22;20410;55.578;12.968;2022-09-28T01:41:49;13.00;99.90
34135;DHT22;20410;55.578;12.968;2022-09-28T01:44:18;13.00;99.90
34135;DHT22;20410;55.578;12.968;2022-09-28T01:46:47;13.00;99.90
34135;DHT22;20410;55.578;12.968;2022-09-28T01:49:18;12.90;99.90
34135;DHT22;20410;55.578;12.968;2022-09-28T01:51:50;12.90;99.90
34135;DHT22;20410;55.578;12.968;2022-09-28T01:54:43;12.80;99.90
34135;DHT22;20410;55.578;12.968;2022-09-28T01:57:30;12.80;99.90
34135;DHT22;20410;55.578;12.968;2022-09-28T02:00:06;12.70;99.90
34135;DHT22;20410;55.578;12.968;2022-09-28T02:03:00;12.70;99.90
34135;DHT22;20410;55.578;12.968;2022-09-28T02:07:58;12.60;99.90
34135;DHT22;20410;55.578;12.968;2022-09-28T02:10:37;12.60;99.90
34135;DHT22;20410;55.578;12.968;2022-09-28T02:13:28;12.60;99.90
34135;DHT22;20410;55.578;12.968;2022-09-28T02:18:36;12.60;99.90
34135;DHT22;20410;55.578;12.968;2022-09-28T02:21:30;12.60;99.90
34135;DHT22;20410;55.578;12.968;2022-09-28T02:27:03;12.60;99.90
34135;DHT22;20410;55.578;12.968;2022-09-28T02:29:30;12.60;99.90
34135;DHT22;20410;55.578;12.968;2022-09-28T02:31:55;12.60;99.90
34135;DHT22;20410;55.578;12.968;2022-09-28T02:34:21;12.60;99.90
34135;DHT22;20410;55.578;12.968;2022-09-28T02:36:46;12.60;99.90
34135;DHT22;20410;55.578;12.968;2022-09-28T02:39:13;12.60;99.90
34135;DHT22;20410;55.578;12.968;2022-09-28T02:42:20;12.60;99.90
34135;DHT22;20410;55.578;12.968;2022-09-28T02:45:03;12.50;99.90
34135;DHT22;20410;55.578;12.968;2022-09-28T02:53:14;12.50;99.90
34135;DHT22;20410;55.578;12.968;2022-09-28T02:56:16;12.50;99.90
34135;DHT22;20410;55.578;12.968;2022-09-28T02:58:57;12.50;99.90
34135;DHT22;20410;55.578;12.968;2022-09-28T03:02:03;12.40;99.90
34135;DHT22;20410;55.578;12.968;2022-09-28T03:05:05;12.40;99.90
34135;DHT22;20410;55.578;12.968;2022-09-28T03:08:01;12.40;99.90
34135;DHT22;20410;55.578;12.968;2022-09-28T03:12:56;12.40;99.90
34135;DHT22;20410;55.578;12.968;2022-09-28T03:15:25;12.40;99.90
34135;DHT22;20410;55.578;12.968;2022-09-28T03:17:51;12.40;99.90
34135;DHT22;20410;55.578;12.968;2022-09-28T03:20:17;12.40;99.90
34135;DHT22;20410;55.578;12.968;2022-09-28T03:22:43;12.40;99.90
34135;DHT22;20410;55.578;12.968;2022-09-28T03:25:09;12.40;99.90
34135;DHT22;20410;55.578;12.968;2022-09-28T03:27:35;12.30;99.90
34135;DHT22;20410;55.578;12.968;2022-09-28T03:30:01;12.30;99.90
34135;DHT22;20410;55.578;12.968;2022-09-28T03:32:27;12.30;99.90
34135;DHT22;20410;55.578;12.968;2022-09-28T03:34:52;12.20;99.90
34135;DHT22;20410;55.578;12.968;2022-09-28T03:37:18;12.20;99.90
34135;DHT22;20410;55.578;12.968;2022-09-28T03:39:44;12.10;99.90
34135;DHT22;20410;55.578;12.968;2022-09-28T03:42:09;12.10;99.90
34135;DHT22;20410;55.578;12.968;2022-09-28T03:44:35;12.10;99.90
34135;DHT22;20410;55.578;12.968;2022-09-28T03:47:00;12.10;99.90
34135;DHT22;20410;55.578;12.968;2022-09-28T03:49:26;12.10;99.90
34135;DHT22;20410;55.578;12.968;2022-09-28T03:51:52;12.10;99.90
34135;DHT22;20410;55.578;12.968;2022-09-28T03:54:17;12.10;99.90
34135;DHT22;20410;55.578;12.968;2022-09-28T03:56:43;12.10;99.90
34135;DHT22;20410;55.578;12.968;2022-09-28T03:59:09;12.10;99.90
34135;DHT22;20410;55.578;12.968;2022-09-28T04:01:34;12.10;99.90
34135;DHT22;20410;55.578;12.968;2022-09-28T04:04:00;12.20;99.90
34135;DHT22;20410;55.578;12.968;2022-09-28T04:06:26;12.20;99.90
34135;DHT22;20410;55.578;12.968;2022-09-28T04:08:52;12.20;99.90
34135;DHT22;20410;55.578;12.968;2022-09-28T04:11:18;12.20;99.90
34135;DHT22;20410;55.578;12.968;2022-09-28T04:13:47;12.30;99.90
34135;DHT22;20410;55.578;12.968;2022-09-28T04:16:14;12.30;99.90
34135;DHT22;20410;55.578;12.968;2022-09-28T04:18:40;12.40;99.90
34135;DHT22;20410;55.578;12.968;2022-09-28T04:21:09;12.40;99.90
34135;DHT22;20410;55.578;12.968;2022-09-28T04:23:36;12.40;99.90
34135;DHT22;20410;55.578;12.968;2022-09-28T04:26:04;12.40;99.90
34135;DHT22;20410;55.578;12.968;2022-09-28T04:28:30;12.40;99.90
34135;DHT22;20410;55.578;12.968;2022-09-28T04:31:18;12.40;99.90
34135;DHT22;20410;55.578;12.968;2022-09-28T04:33:44;12.40;99.90
34135;DHT22;20410;55.578;12.968;2022-09-28T04:36:10;12.40;99.90
34135;DHT22;20410;55.578;12.968;2022-09-28T04:38:37;12.40;99.90
34135;DHT22;20410;55.578;12.968;2022-09-28T04:41:03;12.40;99.90
34135;DHT22;20410;55.578;12.968;2022-09-28T04:43:29;12.40;99.90
34135;DHT22;20410;55.578;12.968;2022-09-28T04:45:58;12.40;99.90
34135;DHT22;20410;55.578;12.968;2022-09-28T04:48:25;12.40;99.90
34135;DHT22;20410;55.578;12.968;2022-09-28T04:50:58;12.30;99.90
34135;DHT22;20410;55.578;12.968;2022-09-28T04:53:25;12.30;99.90
34135;DHT22;20410;55.578;12.968;2022-09-28T04:55:59;12.40;99.90
34135;DHT22;20410;55.578;12.968;2022-09-28T04:58:25;12.40;99.90
34135;DHT22;20410;55.578;12.968;2022-09-28T05:00:51;12.40;99.90
34135;DHT22;20410;55.578;12.968;2022-09-28T05:03:17;12.40;99.90
34135;DHT22;20410;55.578;12.968;2022-09-28T05:05:44;12.30;99.90
34135;DHT22;20410;55.578;12.968;2022-09-28T05:08:10;12.30;99.90
34135;DHT22;20410;55.578;12.968;2022-09-28T05:10:35;12.30;99.90
34135;DHT22;20410;55.578;12.968;2022-09-28T05:13:01;12.30;99.90
34135;DHT22;20410;55.578;12.968;2022-09-28T05:15:27;12.30;99.90
34135;DHT22;20410;55.578;12.968;2022-09-28T05:17:52;12.30;99.90
34135;DHT22;20410;55.578;12.968;2022-09-28T05:20:18;12.30;99.90
34135;DHT22;20410;55.578;12.968;2022-09-28T05:22:43;12.30;99.90
34135;DHT22;20410;55.578;12.968;2022-09-28T05:25:09;12.30;99.90
34135;DHT22;20410;55.578;12.968;2022-09-28T05:27:34;12.30;99.90
34135;DHT22;20410;55.578;12.968;2022-09-28T05:30:00;12.30;99.90
34135;DHT22;20410;55.578;12.968;2022-09-28T05:32:25;12.30;99.90
34135;DHT22;20410;55.578;12.968;2022-09-28T05:34:51;12.30;99.90
34135;DHT22;20410;55.578;12.968;2022-09-28T05:37:16;12.30;99.90
34135;DHT22;20410;55.578;12.968;2022-09-28T05:39:42;12.30;99.90
34135;DHT22;20410;55.578;12.968;2022-09-28T05:42:08;12.30;99.90
34135;DHT22;20410;55.578;12.968;2022-09-28T05:44:33;12.30;99.90
34135;DHT22;20410;55.578;12.968;2022-09-28T05:46:59;12.30;99.90
34135;DHT22;20410;55.578;12.968;2022-09-28T05:49:24;12.40;99.90
34135;DHT22;20410;55.578;12.968;2022-09-28T05:51:53;12.40;99.90
34135;DHT22;20410;55.578;12.968;2022-09-28T05:54:18;12.40;99.90
34135;DHT22;20410;55.578;12.968;2022-09-28T05:56:44;12.50;99.90
34135;DHT22;20410;55.578;12.968;2022-09-28T05:59:09;12.40;99.90
34135;DHT22;20410;55.578;12.968;2022-09-28T06:01:36;12.50;99.90
34135;DHT22;20410;55.578;12.968;2022-09-28T06:04:01;12.50;99.90
34135;DHT22;20410;55.578;12.968;2022-09-28T06:06:27;12.50;99.90
34135;DHT22;20410;55.578;12.968;2022-09-28T06:08:53;12.50;99.90
34135;DHT22;20410;55.578;12.968;2022-09-28T06:11:18;12.50;99.90
34135;DHT22;20410;55.578;12.968;2022-09-28T06:13:44;12.50;99.90
34135;DHT22;20410;55.578;12.968;2022-09-28T06:16:14;12.60;99.90
34135;DHT22;20410;55.578;12.968;2022-09-28T06:18:41;12.60;99.90
34135;DHT22;20410;55.578;12.968;2022-09-28T06:21:06;12.60;99.90
34135;DHT22;20410;55.578;12.968;2022-09-28T06:23:35;12.60;99.90
34135;DHT22;20410;55.578;12.968;2022-09-28T06:26:00;12.60;99.90
34135;DHT22;20410;55.578;12.968;2022-09-28T06:28:26;12.60;99.90
34135;DHT22;20410;55.578;12.968;2022-09-28T06:30:52;12.60;99.90
34135;DHT22;20410;55.578;12.968;2022-09-28T06:33:18;12.70;99.90
34135;DHT22;20410;55.578;12.968;2022-09-28T06:35:44;12.70;99.90
34135;DHT22;20410;55.578;12.968;2022-09-28T06:38:10;12.80;99.90
34135;DHT22;20410;55.578;12.968;2022-09-28T06:40:36;12.80;99.90
34135;DHT22;20410;55.578;12.968;2022-09-28T06:43:10;12.80;99.90
34135;DHT22;20410;55.578;12.968;2022-09-28T06:45:37;12.80;99.90
34135;DHT22;20410;55.578;12.968;2022-09-28T06:48:04;12.90;99.90
34135;DHT22;20410;55.578;12.968;2022-09-28T06:50:35;12.90;99.90
34135;DHT22;20410;55.578;12.968;2022-09-28T06:53:02;13.00;99.90
34135;DHT22;20410;55.578;12.968;2022-09-28T06:55:28;13.00;99.90
34135;DHT22;20410;55.578;12.968;2022-09-28T06:58:02;13.00;99.90
34135;DHT22;20410;55.578;12.968;2022-09-28T07:00:31;13.10;99.90
34135;DHT22;20410;55.578;12.968;2022-09-28T07:03:01;13.10;99.90
34135;DHT22;20410;55.578;12.968;2022-09-28T07:05:28;13.20;99.90
34135;DHT22;20410;55.578;12.968;2022-09-28T07:07:55;13.20;99.90
34135;DHT22;20410;55.578;12.968;2022-09-28T07:10:25;13.20;99.90
34135;DHT22;20410;55.578;12.968;2022-09-28T07:12:52;13.20;99.90
34135;DHT22;20410;55.578;12.968;2022-09-28T07:15:18;13.30;99.90
34135;DHT22;20410;55.578;12.968;2022-09-28T07:17:44;13.30;99.90
34135;DHT22;20410;55.578;12.968;2022-09-28T07:20:10;13.40;99.90
34135;DHT22;20410;55.578;12.968;2022-09-28T07:22:36;13.40;99.90
34135;DHT22;20410;55.578;12.968;2022-09-28T07:25:02;13.40;99.90
34135;DHT22;20410;55.578;12.968;2022-09-28T07:27:27;13.50;99.90
34135;DHT22;20410;55.578;12.968;2022-09-28T07:29:53;13.50;99.90
34135;DHT22;20410;55.578;12.968;2022-09-28T07:32:21;13.50;99.90
34135;DHT22;20410;55.578;12.968;2022-09-28T07:34:47;13.50;99.90
34135;DHT22;20410;55.578;12.968;2022-09-28T07:37:14;13.50;99.90
34135;DHT22;20410;55.578;12.968;2022-09-28T07:39:40;13.60;99.90
34135;DHT22;20410;55.578;12.968;2022-09-28T07:42:25;13.60;99.90
34135;DHT22;20410;55.578;12.968;2022-09-28T07:44:57;13.60;99.90
34135;DHT22;20410;55.578;12.968;2022-09-28T07:47:23;13.60;99.90
34135;DHT22;20410;55.578;12.968;2022-09-28T07:49:52;13.60;99.90
34135;DHT22;20410;55.578;12.968;2022-09-28T07:52:20;13.60;99.90
34135;DHT22;20410;55.578;12.968;2022-09-28T07:54:48;13.70;99.90
34135;DHT22;20410;55.578;12.968;2022-09-28T07:57:17;13.70;99.90
34135;DHT22;20410;55.578;12.968;2022-09-28T07:59:43;13.60;99.90
34135;DHT22;20410;55.578;12.968;2022-09-28T08:02:10;13.60;99.90
34135;DHT22;20410;55.578;12.968;2022-09-28T08:04:36;13.50;99.90
34135;DHT22;20410;55.578;12.968;2022-09-28T08:07:02;13.50;99.90
34135;DHT22;20410;55.578;12.968;2022-09-28T08:09:28;13.50;99.90
34135;DHT22;20410;55.578;12.968;2022-09-28T08:11:54;13.50;99.90
34135;DHT22;20410;55.578;12.968;2022-09-28T08:14:20;13.50;99.90
34135;DHT22;20410;55.578;12.968;2022-09-28T08:16:45;13.50;99.90
34135;DHT22;20410;55.578;12.968;2022-09-28T08:19:11;13.50;99.90
34135;DHT22;20410;55.578;12.968;2022-09-28T08:21:37;13.50;99.90
34135;DHT22;20410;55.578;12.968;2022-09-28T08:24:13;13.40;99.90
34135;DHT22;20410;55.578;12.968;2022-09-28T08:26:40;13.40;99.90
34135;DHT22;20410;55.578;12.968;2022-09-28T08:29:07;13.50;99.90
34135;DHT22;20410;55.578;12.968;2022-09-28T08:31:33;13.50;99.90
34135;DHT22;20410;55.578;12.968;2022-09-28T08:33:59;13.40;99.90
34135;DHT22;20410;55.578;12.968;2022-09-28T08:36:25;13.30;99.90
34135;DHT22;20410;55.578;12.968;2022-09-28T08:38:50;13.30;99.90
34135;DHT22;20410;55.578;12.968;2022-09-28T08:41:25;13.40;99.90
34135;DHT22;20410;55.578;12.968;2022-09-28T08:46:44;13.50;99.90
34135;DHT22;20410;55.578;12.968;2022-09-28T08:49:17;13.50;99.90
34135;DHT22;20410;55.578;12.968;2022-09-28T08:52:00;13.50;99.90
34135;DHT22;20410;55.578;12.968;2022-09-28T08:54:50;13.50;99.90
34135;DHT22;20410;55.578;12.968;2022-09-28T08:57:34;13.60;99.90
34135;DHT22;20410;55.578;12.968;2022-09-28T09:00:03;13.70;99.90
34135;DHT22;20410;55.578;12.968;2022-09-28T09:02:32;13.70;99.90
34135;DHT22;20410;55.578;12.968;2022-09-28T09:04:59;13.70;99.90
34135;DHT22;20410;55.578;12.968;2022-09-28T09:10:37;13.80;99.90
34135;DHT22;20410;55.578;12.968;2022-09-28T09:13:19;13.80;99.90
34135;DHT22;20410;55.578;12.968;2022-09-28T09:16:20;13.70;99.90
34135;DHT22;20410;55.578;12.968;2022-09-28T09:18:52;13.70;99.90
34135;DHT22;20410;55.578;12.968;2022-09-28T09:21:39;13.70;99.90
34135;DHT22;20410;55.578;12.968;2022-09-28T09:24:25;13.80;99.90
34135;DHT22;20410;55.578;12.968;2022-09-28T09:33:03;13.80;99.90
34135;DHT22;20410;55.578;12.968;2022-09-28T09:44:26;13.90;99.90
34135;DHT22;20410;55.578;12.968;2022-09-28T09:52:31;13.80;99.90
34135;DHT22;20410;55.578;12.968;2022-09-28T10:00:11;13.90;99.90
34135;DHT22;20410;55.578;12.968;2022-09-28T10:02:38;13.90;99.90
34135;DHT22;20410;55.578;12.968;2022-09-28T10:05:16;14.00;99.90
34135;DHT22;20410;55.578;12.968;2022-09-28T10:10:36;14.00;99.90
34135;DHT22;20410;55.578;12.968;2022-09-28T10:13:03;14.10;99.90
34135;DHT22;20410;55.578;12.968;2022-09-28T10:15:32;14.10;99.90
34135;DHT22;20410;55.578;12.968;2022-09-28T10:18:06;14.10;99.90
34135;DHT22;20410;55.578;12.968;2022-09-28T10:20:37;14.00;99.90
34135;DHT22;20410;55.578;12.968;2022-09-28T10:23:05;13.90;99.90
34135;DHT22;20410;55.578;12.968;2022-09-28T10:29:23;13.90;99.90
34135;DHT22;20410;55.578;12.968;2022-09-28T10:43:33;14.30;99.90
34135;DHT22;20410;55.578;12.968;2022-09-28T10:49:44;14.30;99.90
34135;DHT22;20410;55.578;12.968;2022-09-28T10:59:34;14.20;99.90
34135;DHT22;20410;55.578;12.968;2022-09-28T11:26:44;14.30;99.90
34135;DHT22;20410;55.578;12.968;2022-09-28T11:30:03;14.40;99.90
34135;DHT22;20410;55.578;12.968;2022-09-28T11:32:49;14.30;99.90
34135;DHT22;20410;55.578;12.968;2022-09-28T11:39:09;14.30;99.90
34135;DHT22;20410;55.578;12.968;2022-09-28T11:48:26;14.20;99.90
34135;DHT22;20410;55.578;12.968;2022-09-28T11:57:53;14.20;99.90
34135;DHT22;20410;55.578;12.968;2022-09-28T12:00:24;14.20;99.90
34135;DHT22;20410;55.578;12.968;2022-09-28T12:02:58;14.00;99.90
34135;DHT22;20410;55.578;12.968;2022-09-28T12:05:46;14.10;99.90
34135;DHT22;20410;55.578;12.968;2022-09-28T12:08:47;14.10;99.90
34135;DHT22;20410;55.578;12.968;2022-09-28T12:11:34;14.20;99.90
34135;DHT22;20410;55.578;12.968;2022-09-28T12:14:01;14.20;99.90
34135;DHT22;20410;55.578;12.968;2022-09-28T12:16:43;14.30;99.90
34135;DHT22;20410;55.578;12.968;2022-09-28T12:19:18;14.40;99.90
34135;DHT22;20410;55.578;12.968;2022-09-28T12:21:54;14.40;99.90
34135;DHT22;20410;55.578;12.968;2022-09-28T12:24:28;14.50;99.90
34135;DHT22;20410;55.578;12.968;2022-09-28T12:27:03;14.50;99.90
34135;DHT22;20410;55.578;12.968;2022-09-28T12:29:38;14.50;99.90
34135;DHT22;20410;55.578;12.968;2022-09-28T12:32:34;14.40;99.90
34135;DHT22;20410;55.578;12.968;2022-09-28T12:35:04;14.60;99.90
34135;DHT22;20410;55.578;12.968;2022-09-28T12:40:04;14.50;99.90
34135;DHT22;20410;55.578;12.968;2022-09-28T12:42:51;14.50;99.90
34135;DHT22;20410;55.578;12.968;2022-09-28T12:45:36;14.50;99.90
34135;DHT22;20410;55.578;12.968;2022-09-28T12:56:01;14.40;99.90
34135;DHT22;20410;55.578;12.968;2022-09-28T12:58:37;14.30;99.90
34135;DHT22;20410;55.578;12.968;2022-09-28T13:07:20;14.10;99.90
34135;DHT22;20410;55.578;12.968;2022-09-28T13:10:20;14.10;99.90
34135;DHT22;20410;55.578;12.968;2022-09-28T13:15:58;14.30;99.90
34135;DHT22;20410;55.578;12.968;2022-09-28T13:18:37;14.40;99.90
34135;DHT22;20410;55.578;12.968;2022-09-28T13:23:49;14.50;99.90
34135;DHT22;20410;55.578;12.968;2022-09-28T13:26:27;14.50;99.90
34135;DHT22;20410;55.578;12.968;2022-09-28T13:29:04;14.50;99.90
34135;DHT22;20410;55.578;12.968;2022-09-28T13:31:33;14.50;99.90
34135;DHT22;20410;55.578;12.968;2022-09-28T13:34:02;14.40;99.90
34135;DHT22;20410;55.578;12.968;2022-09-28T13:38:56;14.40;99.90
34135;DHT22;20410;55.578;12.968;2022-09-28T13:41:37;14.40;99.90
34135;DHT22;20410;55.578;12.968;2022-09-28T13:44:16;14.20;99.90
34135;DHT22;20410;55.578;12.968;2022-09-28T13:47:04;14.20;99.90
34135;DHT22;20410;55.578;12.968;2022-09-28T14:00:36;14.30;99.90
34135;DHT22;20410;55.578;12.968;2022-09-28T14:03:22;14.30;99.90
34135;DHT22;20410;55.578;12.968;2022-09-28T14:06:06;14.30;99.90
34135;DHT22;20410;55.578;12.968;2022-09-28T14:08:38;14.40;99.90
34135;DHT22;20410;55.578;12.968;2022-09-28T14:16:25;14.50;99.90
34135;DHT22;20410;55.578;12.968;2022-09-28T14:18:58;14.50;99.90
34135;DHT22;20410;55.578;12.968;2022-09-28T14:24:41;14.50;99.90
34135;DHT22;20410;55.578;12.968;2022-09-28T14:27:33;14.50;99.90
34135;DHT22;20410;55.578;12.968;2022-09-28T14:32:37;14.50;99.90
34135;DHT22;20410;55.578;12.968;2022-09-28T14:35:06;14.50;99.90
34135;DHT22;20410;55.578;12.968;2022-09-28T14:37:40;14.60;99.90
34135;DHT22;20410;55.578;12.968;2022-09-28T14:40:28;14.50;99.90
34135;DHT22;20410;55.578;12.968;2022-09-28T14:48:51;14.40;99.90
34135;DHT22;20410;55.578;12.968;2022-09-28T14:56:27;14.40;99.90
34135;DHT22;20410;55.578;12.968;2022-09-28T14:58:56;14.30;99.90
34135;DHT22;20410;55.578;12.968;2022-09-28T15:01:23;14.30;99.90
34135;DHT22;20410;55.578;12.968;2022-09-28T15:03:53;14.30;99.90
34135;DHT22;20410;55.578;12.968;2022-09-28T15:06:22;14.20;99.90
34135;DHT22;20410;55.578;12.968;2022-09-28T15:08:47;14.10;99.90
34135;DHT22;20410;55.578;12.968;2022-09-28T15:11:21;14.00;99.90
34135;DHT22;20410;55.578;12.968;2022-09-28T15:13:49;14.00;99.90
34135;DHT22;20410;55.578;12.968;2022-09-28T15:16:22;14.00;99.90
34135;DHT22;20410;55.578;12.968;2022-09-28T15:21:43;13.90;99.90
34135;DHT22;20410;55.578;12.968;2022-09-28T15:24:38;13.90;99.90
34135;DHT22;20410;55.578;12.968;2022-09-28T15:27:14;13.80;99.90
34135;DHT22;20410;55.578;12.968;2022-09-28T15:29:40;13.80;99.90
34135;DHT22;20410;55.578;12.968;2022-09-28T15:32:09;13.80;99.90
34135;DHT22;20410;55.578;12.968;2022-09-28T15:34:46;13.90;99.90
34135;DHT22;20410;55.578;12.968;2022-09-28T15:37:23;14.00;99.90
34135;DHT22;20410;55.578;12.968;2022-09-28T15:39:52;13.90;99.90
34135;DHT22;20410;55.578;12.968;2022-09-28T15:42:19;13.90;99.90
34135;DHT22;20410;55.578;12.968;2022-09-28T15:45:13;13.90;99.90
34135;DHT22;20410;55.578;12.968;2022-09-28T15:47:56;14.00;99.90
34135;DHT22;20410;55.578;12.968;2022-09-28T15:50:38;14.00;99.90
34135;DHT22;20410;55.578;12.968;2022-09-28T15:53:16;14.10;99.90
34135;DHT22;20410;55.578;12.968;2022-09-28T15:55:43;14.00;99.90
34135;DHT22;20410;55.578;12.968;2022-09-28T15:58:19;13.90;99.90
34135;DHT22;20410;55.578;12.968;2022-09-28T16:00:49;14.00;99.90
34135;DHT22;20410;55.578;12.968;2022-09-28T16:03:35;14.00;99.90
34135;DHT22;20410;55.578;12.968;2022-09-28T16:06:06;13.90;99.90
34135;DHT22;20410;55.578;12.968;2022-09-28T16:09:30;13.90;99.90
34135;DHT22;20410;55.578;12.968;2022-09-28T16:12:08;13.90;99.90
34135;DHT22;20410;55.578;12.968;2022-09-28T16:14:35;13.90;99.90
34135;DHT22;20410;55.578;12.968;2022-09-28T16:17:00;13.90;99.90
34135;DHT22;20410;55.578;12.968;2022-09-28T16:19:34;13.90;99.90
34135;DHT22;20410;55.578;12.968;2022-09-28T16:22:02;13.90;99.90
34135;DHT22;20410;55.578;12.968;2022-09-28T16:24:35;13.80;99.90
34135;DHT22;20410;55.578;12.968;2022-09-28T16:27:04;13.80;99.90
34135;DHT22;20410;55.578;12.968;2022-09-28T16:29:38;13.80;99.90
34135;DHT22;20410;55.578;12.968;2022-09-28T16:35:24;13.70;99.90
34135;DHT22;20410;55.578;12.968;2022-09-28T16:38:17;13.70;99.90
34135;DHT22;20410;55.578;12.968;2022-09-28T16:40:51;13.60;99.90
34135;DHT22;20410;55.578;12.968;2022-09-28T16:43:25;13.60;99.90
34135;DHT22;20410;55.578;12.968;2022-09-28T16:45:56;13.60;99.90
34135;DHT22;20410;55.578;12.968;2022-09-28T16:48:28;13.60;99.90
34135;DHT22;20410;55.578;12.968;2022-09-28T16:50:55;13.60;99.90
34135;DHT22;20410;55.578;12.968;2022-09-28T16:53:21;13.60;99.90
34135;DHT22;20410;55.578;12.968;2022-09-28T16:56:05;13.60;99.90
34135;DHT22;20410;55.578;12.968;2022-09-28T16:58:31;13.60;99.90
34135;DHT22;20410;55.578;12.968;2022-09-28T17:00:58;13.50;99.90
34135;DHT22;20410;55.578;12.968;2022-09-28T17:03:24;13.50;99.90
34135;DHT22;20410;55.578;12.968;2022-09-28T17:05:51;13.50;99.90
34135;DHT22;20410;55.578;12.968;2022-09-28T17:08:19;13.40;99.90
34135;DHT22;20410;55.578;12.968;2022-09-28T17:10:54;13.40;99.90
34135;DHT22;20410;55.578;12.968;2022-09-28T17:13:22;13.40;99.90
34135;DHT22;20410;55.578;12.968;2022-09-28T17:15:51;13.30;99.90
34135;DHT22;20410;55.578;12.968;2022-09-28T17:18:18;13.20;99.90
34135;DHT22;20410;55.578;12.968;2022-09-28T17:20:49;13.10;99.90
34135;DHT22;20410;55.578;12.968;2022-09-28T17:23:15;13.00;99.90
34135;DHT22;20410;55.578;12.968;2022-09-28T17:25:41;12.90;99.90
34135;DHT22;20410;55.578;12.968;2022-09-28T17:28:19;12.90;99.90
34135;DHT22;20410;55.578;12.968;2022-09-28T17:30:46;12.80;99.90
34135;DHT22;20410;55.578;12.968;2022-09-28T17:33:12;12.70;99.90
34135;DHT22;20410;55.578;12.968;2022-09-28T17:35:39;12.60;99.90
34135;DHT22;20410;55.578;12.968;2022-09-28T17:38:05;12.70;99.90
34135;DHT22;20410;55.578;12.968;2022-09-28T17:40:30;12.70;99.90
34135;DHT22;20410;55.578;12.968;2022-09-28T17:42:56;12.70;99.90
34135;DHT22;20410;55.578;12.968;2022-09-28T17:45:24;12.70;99.90
34135;DHT22;20410;55.578;12.968;2022-09-28T17:47:52;12.70;99.90
34135;DHT22;20410;55.578;12.968;2022-09-28T17:52:58;12.80;99.90
34135;DHT22;20410;55.578;12.968;2022-09-28T17:55:29;12.80;99.90
34135;DHT22;20410;55.578;12.968;2022-09-28T17:57:59;12.80;99.90
34135;DHT22;20410;55.578;12.968;2022-09-28T18:00:26;12.90;99.90
34135;DHT22;20410;55.578;12.968;2022-09-28T18:02:53;12.90;99.90
34135;DHT22;20410;55.578;12.968;2022-09-28T18:05:19;12.80;99.90
34135;DHT22;20410;55.578;12.968;2022-09-28T18:07:45;12.80;99.90
34135;DHT22;20410;55.578;12.968;2022-09-28T18:10:22;12.80;99.90
34135;DHT22;20410;55.578;12.968;2022-09-28T18:12:48;12.80;99.90
34135;DHT22;20410;55.578;12.968;2022-09-28T18:15:15;12.80;99.90
34135;DHT22;20410;55.578;12.968;2022-09-28T18:17:41;12.80;99.90
34135;DHT22;20410;55.578;12.968;2022-09-28T18:20:08;12.70;99.90
34135;DHT22;20410;55.578;12.968;2022-09-28T18:22:34;12.70;99.90
34135;DHT22;20410;55.578;12.968;2022-09-28T18:25:00;12.70;99.90
34135;DHT22;20410;55.578;12.968;2022-09-28T18:27:29;12.70;99.90
34135;DHT22;20410;55.578;12.968;2022-09-28T18:29:55;12.70;99.90
34135;DHT22;20410;55.578;12.968;2022-09-28T18:32:21;12.70;99.90
34135;DHT22;20410;55.578;12.968;2022-09-28T18:34:46;12.80;99.90
34135;DHT22;20410;55.578;12.968;2022-09-28T18:37:12;12.70;99.90
34135;DHT22;20410;55.578;12.968;2022-09-28T18:39:38;12.80;99.90
34135;DHT22;20410;55.578;12.968;2022-09-28T18:42:04;12.60;99.90
34135;DHT22;20410;55.578;12.968;2022-09-28T18:44:29;12.60;99.90
34135;DHT22;20410;55.578;12.968;2022-09-28T18:46:55;12.60;99.90
34135;DHT22;20410;55.578;12.968;2022-09-28T18:49:21;12.60;99.90
34135;DHT22;20410;55.578;12.968;2022-09-28T18:51:47;12.60;99.90
34135;DHT22;20410;55.578;12.968;2022-09-28T18:54:13;12.60;99.90
34135;DHT22;20410;55.578;12.968;2022-09-28T18:56:39;12.50;99.90
34135;DHT22;20410;55.578;12.968;2022-09-28T18:59:07;12.60;99.90
34135;DHT22;20410;55.578;12.968;2022-09-28T19:01:34;12.60;99.90
34135;DHT22;20410;55.578;12.968;2022-09-28T19:04:03;12.60;99.90